sensor_id;sensor_type;location;lat;lon;timestamp;P1;durP1;ratioP1;P2;durP2;ratioP2
18568;SDS011;14780;48.316;-1.050;2023-08-08T00:01:28;4.75;;;2.05;;
18568;SDS011;14780;48.316;-1.050;2023-08-08T00:04:13;3.30;;;1.80;;
18568;SDS011;14780;48.316;-1.050;2023-08-08T00:06:57;2.20;;;1.65;;
18568;SDS011;14780;48.316;-1.050;2023-08-08T00:09:42;2.83;;;1.70;;
18568;SDS011;14780;48.316;-1.050;2023-08-08T00:12:27;3.38;;;1.88;;
18568;SDS011;14780;48.316;-1.050;2023-08-08T00:15:11;2.67;;;1.92;;
18568;SDS011;14780;48.316;-1.050;2023-08-08T00:17:56;3.45;;;1.90;;
18568;SDS011;14780;48.316;-1.050;2023-08-08T00:20:40;2.20;;;1.60;;
18568;SDS011;14780;48.316;-1.050;2023-08-08T00:23:25;2.80;;;1.80;;
18568;SDS011;14780;48.316;-1.050;2023-08-08T00:26:10;2.72;;;1.80;;
18568;SDS011;14780;48.316;-1.050;2023-08-08T00:28:54;3.72;;;1.98;;
18568;SDS011;14780;48.316;-1.050;2023-08-08T00:31:39;3.00;;;1.70;;
18568;SDS011;14780;48.316;-1.050;2023-08-08T00:34:23;3.00;;;1.60;;
18568;SDS011;14780;48.316;-1.050;2023-08-08T00:37:08;4.85;;;2.00;;
18568;SDS011;14780;48.316;-1.050;2023-08-08T00:39:53;3.42;;;2.00;;
18568;SDS011;14780;48.316;-1.050;2023-08-08T00:42:37;3.20;;;1.80;;
18568;SDS011;14780;48.316;-1.050;2023-08-08T00:45:22;3.03;;;1.92;;
18568;SDS011;14780;48.316;-1.050;2023-08-08T00:48:07;3.77;;;1.90;;
18568;SDS011;14780;48.316;-1.050;2023-08-08T00:50:52;3.67;;;1.90;;
18568;SDS011;14780;48.316;-1.050;2023-08-08T00:53:36;2.88;;;1.80;;
18568;SDS011;14780;48.316;-1.050;2023-08-08T00:56:21;2.92;;;1.65;;
18568;SDS011;14780;48.316;-1.050;2023-08-08T00:59:07;2.72;;;1.80;;
18568;SDS011;14780;48.316;-1.050;2023-08-08T01:01:54;2.72;;;1.80;;
18568;SDS011;14780;48.316;-1.050;2023-08-08T01:04:40;2.92;;;1.77;;
18568;SDS011;14780;48.316;-1.050;2023-08-08T01:10:47;2.83;;;1.90;;
18568;SDS011;14780;48.316;-1.050;2023-08-08T01:13:32;2.55;;;1.60;;
18568;SDS011;14780;48.316;-1.050;2023-08-08T01:16:17;2.50;;;1.60;;
18568;SDS011;14780;48.316;-1.050;2023-08-08T01:19:03;2.47;;;1.70;;
18568;SDS011;14780;48.316;-1.050;2023-08-08T01:21:52;2.08;;;1.60;;
18568;SDS011;14780;48.316;-1.050;2023-08-08T01:24:40;1.95;;;1.63;;
18568;SDS011;14780;48.316;-1.050;2023-08-08T01:27:28;2.42;;;1.70;;
18568;SDS011;14780;48.316;-1.050;2023-08-08T01:30:13;3.10;;;1.80;;
18568;SDS011;14780;48.316;-1.050;2023-08-08T01:32:58;3.08;;;1.92;;
18568;SDS011;14780;48.316;-1.050;2023-08-08T01:35:44;3.50;;;1.70;;
18568;SDS011;14780;48.316;-1.050;2023-08-08T01:38:48;3.28;;;2.00;;
18568;SDS011;14780;48.316;-1.050;2023-08-08T01:41:37;4.18;;;2.08;;
18568;SDS011;14780;48.316;-1.050;2023-08-08T01:44:23;3.28;;;1.95;;
18568;SDS011;14780;48.316;-1.050;2023-08-08T01:47:10;3.47;;;1.90;;
18568;SDS011;14780;48.316;-1.050;2023-08-08T01:49:54;2.58;;;1.92;;
18568;SDS011;14780;48.316;-1.050;2023-08-08T01:52:39;3.07;;;1.70;;
18568;SDS011;14780;48.316;-1.050;2023-08-08T01:55:24;3.22;;;1.90;;
18568;SDS011;14780;48.316;-1.050;2023-08-08T01:58:09;3.38;;;1.98;;
18568;SDS011;14780;48.316;-1.050;2023-08-08T02:00:53;2.83;;;1.88;;
18568;SDS011;14780;48.316;-1.050;2023-08-08T02:03:38;3.25;;;1.80;;
18568;SDS011;14780;48.316;-1.050;2023-08-08T02:06:22;4.88;;;1.75;;
18568;SDS011;14780;48.316;-1.050;2023-08-08T02:09:07;3.35;;;1.90;;
18568;SDS011;14780;48.316;-1.050;2023-08-08T02:11:52;2.23;;;1.63;;
18568;SDS011;14780;48.316;-1.050;2023-08-08T02:14:36;3.40;;;1.88;;
18568;SDS011;14780;48.316;-1.050;2023-08-08T02:17:21;2.70;;;1.88;;
18568;SDS011;14780;48.316;-1.050;2023-08-08T02:20:06;2.72;;;1.65;;
18568;SDS011;14780;48.316;-1.050;2023-08-08T02:22:51;3.50;;;1.88;;
18568;SDS011;14780;48.316;-1.050;2023-08-08T02:25:36;3.22;;;1.80;;
18568;SDS011;14780;48.316;-1.050;2023-08-08T02:28:20;3.93;;;1.90;;
18568;SDS011;14780;48.316;-1.050;2023-08-08T02:31:07;3.22;;;1.70;;
18568;SDS011;14780;48.316;-1.050;2023-08-08T02:33:52;2.50;;;1.70;;
18568;SDS011;14780;48.316;-1.050;2023-08-08T02:36:38;3.45;;;1.83;;
18568;SDS011;14780;48.316;-1.050;2023-08-08T02:39:23;2.33;;;1.67;;
18568;SDS011;14780;48.316;-1.050;2023-08-08T02:42:08;3.27;;;1.73;;
18568;SDS011;14780;48.316;-1.050;2023-08-08T02:44:52;3.97;;;2.00;;
18568;SDS011;14780;48.316;-1.050;2023-08-08T02:47:37;2.85;;;1.85;;
18568;SDS011;14780;48.316;-1.050;2023-08-08T02:50:21;3.97;;;2.00;;
18568;SDS011;14780;48.316;-1.050;2023-08-08T02:53:06;3.80;;;1.90;;
18568;SDS011;14780;48.316;-1.050;2023-08-08T02:55:51;2.05;;;1.50;;
18568;SDS011;14780;48.316;-1.050;2023-08-08T02:58:35;3.20;;;1.80;;
18568;SDS011;14780;48.316;-1.050;2023-08-08T03:01:20;2.58;;;1.70;;
18568;SDS011;14780;48.316;-1.050;2023-08-08T03:04:05;3.08;;;1.70;;
18568;SDS011;14780;48.316;-1.050;2023-08-08T03:06:50;2.15;;;1.58;;
18568;SDS011;14780;48.316;-1.050;2023-08-08T03:09:35;2.50;;;1.58;;
18568;SDS011;14780;48.316;-1.050;2023-08-08T03:12:20;2.57;;;1.73;;
18568;SDS011;14780;48.316;-1.050;2023-08-08T03:15:05;3.05;;;1.80;;
18568;SDS011;14780;48.316;-1.050;2023-08-08T03:17:51;3.10;;;1.83;;
18568;SDS011;14780;48.316;-1.050;2023-08-08T03:20:35;3.05;;;1.70;;
18568;SDS011;14780;48.316;-1.050;2023-08-08T03:23:20;2.88;;;1.85;;
18568;SDS011;14780;48.316;-1.050;2023-08-08T03:26:07;3.10;;;1.92;;
18568;SDS011;14780;48.316;-1.050;2023-08-08T03:28:52;2.60;;;1.70;;
18568;SDS011;14780;48.316;-1.050;2023-08-08T03:31:37;3.60;;;1.70;;
18568;SDS011;14780;48.316;-1.050;2023-08-08T03:34:22;2.60;;;1.80;;
18568;SDS011;14780;48.316;-1.050;2023-08-08T03:37:06;3.90;;;1.92;;
18568;SDS011;14780;48.316;-1.050;2023-08-08T03:39:51;2.20;;;1.70;;
18568;SDS011;14780;48.316;-1.050;2023-08-08T03:42:35;2.67;;;1.60;;
18568;SDS011;14780;48.316;-1.050;2023-08-08T03:45:20;2.42;;;1.70;;
18568;SDS011;14780;48.316;-1.050;2023-08-08T03:48:05;4.55;;;1.98;;
18568;SDS011;14780;48.316;-1.050;2023-08-08T03:50:50;2.70;;;1.88;;
18568;SDS011;14780;48.316;-1.050;2023-08-08T03:53:34;3.00;;;1.90;;
18568;SDS011;14780;48.316;-1.050;2023-08-08T03:56:19;2.88;;;1.90;;
18568;SDS011;14780;48.316;-1.050;2023-08-08T03:59:04;3.28;;;1.90;;
18568;SDS011;14780;48.316;-1.050;2023-08-08T04:01:49;3.60;;;1.90;;
18568;SDS011;14780;48.316;-1.050;2023-08-08T04:04:34;3.50;;;1.67;;
18568;SDS011;14780;48.316;-1.050;2023-08-08T04:07:18;3.22;;;1.85;;
18568;SDS011;14780;48.316;-1.050;2023-08-08T04:10:03;3.03;;;1.67;;
18568;SDS011;14780;48.316;-1.050;2023-08-08T04:12:48;2.67;;;1.73;;
18568;SDS011;14780;48.316;-1.050;2023-08-08T04:15:33;2.83;;;1.60;;
18568;SDS011;14780;48.316;-1.050;2023-08-08T04:18:17;4.07;;;1.83;;
18568;SDS011;14780;48.316;-1.050;2023-08-08T04:21:02;2.92;;;2.00;;
18568;SDS011;14780;48.316;-1.050;2023-08-08T04:23:47;2.78;;;1.90;;
18568;SDS011;14780;48.316;-1.050;2023-08-08T04:26:32;2.90;;;1.70;;
18568;SDS011;14780;48.316;-1.050;2023-08-08T04:29:17;3.17;;;1.67;;
18568;SDS011;14780;48.316;-1.050;2023-08-08T04:32:01;2.22;;;1.67;;
18568;SDS011;14780;48.316;-1.050;2023-08-08T04:34:47;4.57;;;1.88;;
18568;SDS011;14780;48.316;-1.050;2023-08-08T04:37:31;3.28;;;1.77;;
18568;SDS011;14780;48.316;-1.050;2023-08-08T04:40:16;2.40;;;1.60;;
18568;SDS011;14780;48.316;-1.050;2023-08-08T04:43:00;3.28;;;1.90;;
18568;SDS011;14780;48.316;-1.050;2023-08-08T04:45:45;3.33;;;1.60;;
18568;SDS011;14780;48.316;-1.050;2023-08-08T04:48:30;4.80;;;1.90;;
18568;SDS011;14780;48.316;-1.050;2023-08-08T04:51:16;2.85;;;1.73;;
18568;SDS011;14780;48.316;-1.050;2023-08-08T04:54:01;2.50;;;1.75;;
18568;SDS011;14780;48.316;-1.050;2023-08-08T04:56:45;3.75;;;1.77;;
18568;SDS011;14780;48.316;-1.050;2023-08-08T04:59:30;2.25;;;1.50;;
18568;SDS011;14780;48.316;-1.050;2023-08-08T05:02:15;2.28;;;1.52;;
18568;SDS011;14780;48.316;-1.050;2023-08-08T05:05:00;3.40;;;2.00;;
18568;SDS011;14780;48.316;-1.050;2023-08-08T05:07:44;2.38;;;1.70;;
18568;SDS011;14780;48.316;-1.050;2023-08-08T05:10:29;2.55;;;1.58;;
18568;SDS011;14780;48.316;-1.050;2023-08-08T05:13:15;2.28;;;1.60;;
18568;SDS011;14780;48.316;-1.050;2023-08-08T05:15:59;3.50;;;1.85;;
18568;SDS011;14780;48.316;-1.050;2023-08-08T05:18:44;3.28;;;2.08;;
18568;SDS011;14780;48.316;-1.050;2023-08-08T05:21:29;2.65;;;1.60;;
18568;SDS011;14780;48.316;-1.050;2023-08-08T05:24:14;3.22;;;1.80;;
18568;SDS011;14780;48.316;-1.050;2023-08-08T05:26:58;4.38;;;2.10;;
18568;SDS011;14780;48.316;-1.050;2023-08-08T05:29:43;4.97;;;1.77;;
18568;SDS011;14780;48.316;-1.050;2023-08-08T05:32:27;2.38;;;1.50;;
18568;SDS011;14780;48.316;-1.050;2023-08-08T05:35:12;3.88;;;1.85;;
18568;SDS011;14780;48.316;-1.050;2023-08-08T05:37:58;2.95;;;1.77;;
18568;SDS011;14780;48.316;-1.050;2023-08-08T05:40:42;4.50;;;1.90;;
18568;SDS011;14780;48.316;-1.050;2023-08-08T05:43:27;3.50;;;1.90;;
18568;SDS011;14780;48.316;-1.050;2023-08-08T05:46:11;2.33;;;1.45;;
18568;SDS011;14780;48.316;-1.050;2023-08-08T05:48:56;3.30;;;1.87;;
18568;SDS011;14780;48.316;-1.050;2023-08-08T05:51:40;2.95;;;1.70;;
18568;SDS011;14780;48.316;-1.050;2023-08-08T05:54:25;2.58;;;1.63;;
18568;SDS011;14780;48.316;-1.050;2023-08-08T05:57:11;2.53;;;1.58;;
18568;SDS011;14780;48.316;-1.050;2023-08-08T05:59:56;3.13;;;1.77;;
18568;SDS011;14780;48.316;-1.050;2023-08-08T06:02:41;3.30;;;1.75;;
18568;SDS011;14780;48.316;-1.050;2023-08-08T06:05:26;2.93;;;2.00;;
18568;SDS011;14780;48.316;-1.050;2023-08-08T06:08:11;2.58;;;1.77;;
18568;SDS011;14780;48.316;-1.050;2023-08-08T06:10:57;2.75;;;1.50;;
18568;SDS011;14780;48.316;-1.050;2023-08-08T06:13:42;2.83;;;1.75;;
18568;SDS011;14780;48.316;-1.050;2023-08-08T06:16:27;2.53;;;1.60;;
18568;SDS011;14780;48.316;-1.050;2023-08-08T06:19:12;3.23;;;1.70;;
18568;SDS011;14780;48.316;-1.050;2023-08-08T06:21:58;3.97;;;2.00;;
18568;SDS011;14780;48.316;-1.050;2023-08-08T06:24:43;2.35;;;1.70;;
18568;SDS011;14780;48.316;-1.050;2023-08-08T06:27:28;2.97;;;1.80;;
18568;SDS011;14780;48.316;-1.050;2023-08-08T06:30:14;2.90;;;1.60;;
18568;SDS011;14780;48.316;-1.050;2023-08-08T06:32:59;1.90;;;1.50;;
18568;SDS011;14780;48.316;-1.050;2023-08-08T06:35:44;4.60;;;1.67;;
18568;SDS011;14780;48.316;-1.050;2023-08-08T06:38:29;2.10;;;1.63;;
18568;SDS011;14780;48.316;-1.050;2023-08-08T06:41:17;2.65;;;1.70;;
18568;SDS011;14780;48.316;-1.050;2023-08-08T06:44:01;2.67;;;1.85;;
18568;SDS011;14780;48.316;-1.050;2023-08-08T06:46:46;3.25;;;1.58;;
18568;SDS011;14780;48.316;-1.050;2023-08-08T06:49:31;2.47;;;1.67;;
18568;SDS011;14780;48.316;-1.050;2023-08-08T06:52:15;2.22;;;1.55;;
18568;SDS011;14780;48.316;-1.050;2023-08-08T06:55:00;3.03;;;1.60;;
18568;SDS011;14780;48.316;-1.050;2023-08-08T06:57:46;2.05;;;1.50;;
18568;SDS011;14780;48.316;-1.050;2023-08-08T07:00:30;2.13;;;1.52;;
18568;SDS011;14780;48.316;-1.050;2023-08-08T07:03:15;2.72;;;1.52;;
18568;SDS011;14780;48.316;-1.050;2023-08-08T07:06:00;3.15;;;1.77;;
18568;SDS011;14780;48.316;-1.050;2023-08-08T07:08:46;3.13;;;2.00;;
18568;SDS011;14780;48.316;-1.050;2023-08-08T07:11:31;2.80;;;1.88;;
18568;SDS011;14780;48.316;-1.050;2023-08-08T07:14:15;2.28;;;1.40;;
18568;SDS011;14780;48.316;-1.050;2023-08-08T07:17:00;3.38;;;1.80;;
18568;SDS011;14780;48.316;-1.050;2023-08-08T07:19:47;3.17;;;1.73;;
18568;SDS011;14780;48.316;-1.050;2023-08-08T07:22:32;3.10;;;1.57;;
18568;SDS011;14780;48.316;-1.050;2023-08-08T07:25:17;3.65;;;1.88;;
18568;SDS011;14780;48.316;-1.050;2023-08-08T07:28:01;4.70;;;1.87;;
18568;SDS011;14780;48.316;-1.050;2023-08-08T07:30:46;2.42;;;1.65;;
18568;SDS011;14780;48.316;-1.050;2023-08-08T07:33:30;2.40;;;1.65;;
18568;SDS011;14780;48.316;-1.050;2023-08-08T07:36:15;3.33;;;1.52;;
18568;SDS011;14780;48.316;-1.050;2023-08-08T07:38:59;2.45;;;1.58;;
18568;SDS011;14780;48.316;-1.050;2023-08-08T07:41:44;2.90;;;1.75;;
18568;SDS011;14780;48.316;-1.050;2023-08-08T07:44:29;2.83;;;1.63;;
18568;SDS011;14780;48.316;-1.050;2023-08-08T07:47:15;2.92;;;1.83;;
18568;SDS011;14780;48.316;-1.050;2023-08-08T07:50:00;3.58;;;1.98;;
18568;SDS011;14780;48.316;-1.050;2023-08-08T07:52:45;4.20;;;2.10;;
18568;SDS011;14780;48.316;-1.050;2023-08-08T07:55:29;2.27;;;1.60;;
18568;SDS011;14780;48.316;-1.050;2023-08-08T07:58:14;3.22;;;1.80;;
18568;SDS011;14780;48.316;-1.050;2023-08-08T08:00:58;3.13;;;1.80;;
18568;SDS011;14780;48.316;-1.050;2023-08-08T08:03:44;4.03;;;1.95;;
18568;SDS011;14780;48.316;-1.050;2023-08-08T08:06:28;2.95;;;1.90;;
18568;SDS011;14780;48.316;-1.050;2023-08-08T08:09:13;2.85;;;1.77;;
18568;SDS011;14780;48.316;-1.050;2023-08-08T08:11:57;3.90;;;2.03;;
18568;SDS011;14780;48.316;-1.050;2023-08-08T08:14:42;2.90;;;1.75;;
18568;SDS011;14780;48.316;-1.050;2023-08-08T08:17:27;3.17;;;1.70;;
18568;SDS011;14780;48.316;-1.050;2023-08-08T08:20:12;3.33;;;2.00;;
18568;SDS011;14780;48.316;-1.050;2023-08-08T08:22:57;3.83;;;1.92;;
18568;SDS011;14780;48.316;-1.050;2023-08-08T08:25:41;3.30;;;1.75;;
18568;SDS011;14780;48.316;-1.050;2023-08-08T08:28:26;4.28;;;2.17;;
18568;SDS011;14780;48.316;-1.050;2023-08-08T08:31:11;3.13;;;1.88;;
18568;SDS011;14780;48.316;-1.050;2023-08-08T08:33:55;3.53;;;2.20;;
18568;SDS011;14780;48.316;-1.050;2023-08-08T08:36:40;4.93;;;2.00;;
18568;SDS011;14780;48.316;-1.050;2023-08-08T08:39:24;4.00;;;1.92;;
18568;SDS011;14780;48.316;-1.050;2023-08-08T08:42:09;3.45;;;2.15;;
18568;SDS011;14780;48.316;-1.050;2023-08-08T08:44:58;3.13;;;1.77;;
18568;SDS011;14780;48.316;-1.050;2023-08-08T08:47:45;3.07;;;1.80;;
18568;SDS011;14780;48.316;-1.050;2023-08-08T08:50:32;4.43;;;1.92;;
18568;SDS011;14780;48.316;-1.050;2023-08-08T08:53:17;4.30;;;2.00;;
18568;SDS011;14780;48.316;-1.050;2023-08-08T08:56:02;4.13;;;2.20;;
18568;SDS011;14780;48.316;-1.050;2023-08-08T08:58:47;3.58;;;1.80;;
18568;SDS011;14780;48.316;-1.050;2023-08-08T09:01:32;4.28;;;2.10;;
18568;SDS011;14780;48.316;-1.050;2023-08-08T09:04:18;3.92;;;2.08;;
18568;SDS011;14780;48.316;-1.050;2023-08-08T09:07:05;3.20;;;1.90;;
18568;SDS011;14780;48.316;-1.050;2023-08-08T09:09:52;5.05;;;2.10;;
18568;SDS011;14780;48.316;-1.050;2023-08-08T09:12:37;3.53;;;2.00;;
18568;SDS011;14780;48.316;-1.050;2023-08-08T09:15:21;2.65;;;1.70;;
18568;SDS011;14780;48.316;-1.050;2023-08-08T09:18:06;2.78;;;1.65;;
18568;SDS011;14780;48.316;-1.050;2023-08-08T09:20:51;3.78;;;2.10;;
18568;SDS011;14780;48.316;-1.050;2023-08-08T09:23:36;3.10;;;1.80;;
18568;SDS011;14780;48.316;-1.050;2023-08-08T09:26:22;4.72;;;1.92;;
18568;SDS011;14780;48.316;-1.050;2023-08-08T09:29:07;4.30;;;2.22;;
18568;SDS011;14780;48.316;-1.050;2023-08-08T09:31:53;4.28;;;2.05;;
18568;SDS011;14780;48.316;-1.050;2023-08-08T09:34:40;2.67;;;1.83;;
18568;SDS011;14780;48.316;-1.050;2023-08-08T09:37:27;4.82;;;2.00;;
18568;SDS011;14780;48.316;-1.050;2023-08-08T09:40:13;3.88;;;1.98;;
18568;SDS011;14780;48.316;-1.050;2023-08-08T09:42:58;3.20;;;2.00;;
18568;SDS011;14780;48.316;-1.050;2023-08-08T09:45:43;3.55;;;2.00;;
18568;SDS011;14780;48.316;-1.050;2023-08-08T09:48:29;3.55;;;2.08;;
18568;SDS011;14780;48.316;-1.050;2023-08-08T09:51:15;3.90;;;2.00;;
18568;SDS011;14780;48.316;-1.050;2023-08-08T09:54:01;3.55;;;2.03;;
18568;SDS011;14780;48.316;-1.050;2023-08-08T09:56:49;3.53;;;1.98;;
18568;SDS011;14780;48.316;-1.050;2023-08-08T09:59:36;4.40;;;2.05;;
18568;SDS011;14780;48.316;-1.050;2023-08-08T10:02:21;3.97;;;2.17;;
18568;SDS011;14780;48.316;-1.050;2023-08-08T10:05:07;3.42;;;2.10;;
18568;SDS011;14780;48.316;-1.050;2023-08-08T10:07:53;3.75;;;1.92;;
18568;SDS011;14780;48.316;-1.050;2023-08-08T10:10:39;3.25;;;2.00;;
18568;SDS011;14780;48.316;-1.050;2023-08-08T10:13:25;3.87;;;1.97;;
18568;SDS011;14780;48.316;-1.050;2023-08-08T10:16:11;4.00;;;2.03;;
18568;SDS011;14780;48.316;-1.050;2023-08-08T10:18:56;4.63;;;2.05;;
18568;SDS011;14780;48.316;-1.050;2023-08-08T10:21:44;3.45;;;2.13;;
18568;SDS011;14780;48.316;-1.050;2023-08-08T10:24:33;3.83;;;2.20;;
18568;SDS011;14780;48.316;-1.050;2023-08-08T10:27:28;3.35;;;1.90;;
18568;SDS011;14780;48.316;-1.050;2023-08-08T10:30:16;4.45;;;2.30;;
18568;SDS011;14780;48.316;-1.050;2023-08-08T10:33:01;4.72;;;2.10;;
18568;SDS011;14780;48.316;-1.050;2023-08-08T10:35:58;3.90;;;1.90;;
18568;SDS011;14780;48.316;-1.050;2023-08-08T10:38:53;5.10;;;2.00;;
18568;SDS011;14780;48.316;-1.050;2023-08-08T10:41:49;4.35;;;2.25;;
18568;SDS011;14780;48.316;-1.050;2023-08-08T10:44:40;4.17;;;2.13;;
18568;SDS011;14780;48.316;-1.050;2023-08-08T10:47:34;3.28;;;1.90;;
18568;SDS011;14780;48.316;-1.050;2023-08-08T10:50:23;4.57;;;2.27;;
18568;SDS011;14780;48.316;-1.050;2023-08-08T10:53:08;3.30;;;2.00;;
18568;SDS011;14780;48.316;-1.050;2023-08-08T10:56:01;3.40;;;2.00;;
18568;SDS011;14780;48.316;-1.050;2023-08-08T10:58:47;3.50;;;2.28;;
18568;SDS011;14780;48.316;-1.050;2023-08-08T11:01:32;3.25;;;2.22;;
18568;SDS011;14780;48.316;-1.050;2023-08-08T11:04:19;4.88;;;1.80;;
18568;SDS011;14780;48.316;-1.050;2023-08-08T11:07:09;3.97;;;1.70;;
18568;SDS011;14780;48.316;-1.050;2023-08-08T11:09:54;3.70;;;1.93;;
18568;SDS011;14780;48.316;-1.050;2023-08-08T11:12:39;5.43;;;2.28;;
18568;SDS011;14780;48.316;-1.050;2023-08-08T11:15:24;4.72;;;2.13;;
18568;SDS011;14780;48.316;-1.050;2023-08-08T11:18:10;4.25;;;1.92;;
18568;SDS011;14780;48.316;-1.050;2023-08-08T11:20:55;4.50;;;2.05;;
18568;SDS011;14780;48.316;-1.050;2023-08-08T11:23:44;3.90;;;2.17;;
18568;SDS011;14780;48.316;-1.050;2023-08-08T11:26:30;3.50;;;2.13;;
18568;SDS011;14780;48.316;-1.050;2023-08-08T11:29:16;4.05;;;2.15;;
18568;SDS011;14780;48.316;-1.050;2023-08-08T11:32:01;4.65;;;2.13;;
18568;SDS011;14780;48.316;-1.050;2023-08-08T11:34:50;3.58;;;1.90;;
18568;SDS011;14780;48.316;-1.050;2023-08-08T11:37:35;3.65;;;2.00;;
18568;SDS011;14780;48.316;-1.050;2023-08-08T11:40:22;3.00;;;2.00;;
18568;SDS011;14780;48.316;-1.050;2023-08-08T11:43:09;2.87;;;2.13;;
18568;SDS011;14780;48.316;-1.050;2023-08-08T11:45:55;3.05;;;2.08;;
18568;SDS011;14780;48.316;-1.050;2023-08-08T11:48:40;3.50;;;2.08;;
18568;SDS011;14780;48.316;-1.050;2023-08-08T11:51:25;4.17;;;2.20;;
18568;SDS011;14780;48.316;-1.050;2023-08-08T11:54:11;4.32;;;1.92;;
18568;SDS011;14780;48.316;-1.050;2023-08-08T11:56:57;4.95;;;2.00;;
18568;SDS011;14780;48.316;-1.050;2023-08-08T11:59:43;3.17;;;1.90;;
18568;SDS011;14780;48.316;-1.050;2023-08-08T12:02:28;3.47;;;2.00;;
18568;SDS011;14780;48.316;-1.050;2023-08-08T12:05:13;3.00;;;1.85;;
18568;SDS011;14780;48.316;-1.050;2023-08-08T12:08:05;4.38;;;2.30;;
18568;SDS011;14780;48.316;-1.050;2023-08-08T12:10:50;3.40;;;1.83;;
18568;SDS011;14780;48.316;-1.050;2023-08-08T12:13:37;5.82;;;2.28;;
18568;SDS011;14780;48.316;-1.050;2023-08-08T12:16:27;4.43;;;2.30;;
18568;SDS011;14780;48.316;-1.050;2023-08-08T12:19:13;3.90;;;2.17;;
18568;SDS011;14780;48.316;-1.050;2023-08-08T12:22:01;4.40;;;2.22;;
18568;SDS011;14780;48.316;-1.050;2023-08-08T12:24:46;4.13;;;2.00;;
18568;SDS011;14780;48.316;-1.050;2023-08-08T12:27:31;3.70;;;1.90;;
18568;SDS011;14780;48.316;-1.050;2023-08-08T12:30:16;2.92;;;1.90;;
18568;SDS011;14780;48.316;-1.050;2023-08-08T12:33:00;4.95;;;1.98;;
18568;SDS011;14780;48.316;-1.050;2023-08-08T12:35:45;4.35;;;2.28;;
18568;SDS011;14780;48.316;-1.050;2023-08-08T12:38:31;4.88;;;2.25;;
18568;SDS011;14780;48.316;-1.050;2023-08-08T12:41:15;5.23;;;2.37;;
18568;SDS011;14780;48.316;-1.050;2023-08-08T12:44:00;3.50;;;1.83;;
18568;SDS011;14780;48.316;-1.050;2023-08-08T12:46:47;6.43;;;2.00;;
18568;SDS011;14780;48.316;-1.050;2023-08-08T12:49:32;4.00;;;2.10;;
18568;SDS011;14780;48.316;-1.050;2023-08-08T12:52:16;4.65;;;2.35;;
18568;SDS011;14780;48.316;-1.050;2023-08-08T12:55:01;3.83;;;2.33;;
18568;SDS011;14780;48.316;-1.050;2023-08-08T12:57:46;2.55;;;1.70;;
18568;SDS011;14780;48.316;-1.050;2023-08-08T13:00:30;3.33;;;2.35;;
18568;SDS011;14780;48.316;-1.050;2023-08-08T13:03:16;3.37;;;1.80;;
18568;SDS011;14780;48.316;-1.050;2023-08-08T13:06:01;3.53;;;2.17;;
18568;SDS011;14780;48.316;-1.050;2023-08-08T13:08:45;4.10;;;2.30;;
18568;SDS011;14780;48.316;-1.050;2023-08-08T13:11:30;3.92;;;2.30;;
18568;SDS011;14780;48.316;-1.050;2023-08-08T13:14:15;4.20;;;2.10;;
18568;SDS011;14780;48.316;-1.050;2023-08-08T13:16:59;4.25;;;2.33;;
18568;SDS011;14780;48.316;-1.050;2023-08-08T13:19:45;4.30;;;2.30;;
18568;SDS011;14780;48.316;-1.050;2023-08-08T13:22:30;3.00;;;1.90;;
18568;SDS011;14780;48.316;-1.050;2023-08-08T13:25:14;3.67;;;2.17;;
18568;SDS011;14780;48.316;-1.050;2023-08-08T13:28:00;3.80;;;2.03;;
18568;SDS011;14780;48.316;-1.050;2023-08-08T13:30:46;4.80;;;2.17;;
18568;SDS011;14780;48.316;-1.050;2023-08-08T13:33:31;3.47;;;1.90;;
18568;SDS011;14780;48.316;-1.050;2023-08-08T13:36:17;2.90;;;2.00;;
18568;SDS011;14780;48.316;-1.050;2023-08-08T13:39:02;3.70;;;1.88;;
18568;SDS011;14780;48.316;-1.050;2023-08-08T13:41:47;4.13;;;2.25;;
18568;SDS011;14780;48.316;-1.050;2023-08-08T13:44:32;3.65;;;1.92;;
18568;SDS011;14780;48.316;-1.050;2023-08-08T13:47:17;5.22;;;2.30;;
18568;SDS011;14780;48.316;-1.050;2023-08-08T13:50:02;2.45;;;1.90;;
18568;SDS011;14780;48.316;-1.050;2023-08-08T13:52:47;4.60;;;2.38;;
18568;SDS011;14780;48.316;-1.050;2023-08-08T13:55:31;4.20;;;2.03;;
18568;SDS011;14780;48.316;-1.050;2023-08-08T13:58:22;3.30;;;2.15;;
18568;SDS011;14780;48.316;-1.050;2023-08-08T14:01:08;3.42;;;2.08;;
18568;SDS011;14780;48.316;-1.050;2023-08-08T14:03:52;4.03;;;2.00;;
18568;SDS011;14780;48.316;-1.050;2023-08-08T14:06:37;4.45;;;2.17;;
18568;SDS011;14780;48.316;-1.050;2023-08-08T14:09:21;4.03;;;1.95;;
18568;SDS011;14780;48.316;-1.050;2023-08-08T14:12:06;3.28;;;1.90;;
18568;SDS011;14780;48.316;-1.050;2023-08-08T14:14:51;4.00;;;2.30;;
18568;SDS011;14780;48.316;-1.050;2023-08-08T14:17:35;4.18;;;2.30;;
18568;SDS011;14780;48.316;-1.050;2023-08-08T14:20:20;4.10;;;2.20;;
18568;SDS011;14780;48.316;-1.050;2023-08-08T14:23:05;6.45;;;3.20;;
18568;SDS011;14780;48.316;-1.050;2023-08-08T14:25:50;6.13;;;3.58;;
18568;SDS011;14780;48.316;-1.050;2023-08-08T14:28:34;6.38;;;3.75;;
18568;SDS011;14780;48.316;-1.050;2023-08-08T14:31:19;7.90;;;3.85;;
18568;SDS011;14780;48.316;-1.050;2023-08-08T14:34:04;8.05;;;4.32;;
18568;SDS011;14780;48.316;-1.050;2023-08-08T14:36:49;7.28;;;4.15;;
18568;SDS011;14780;48.316;-1.050;2023-08-08T14:39:33;7.15;;;3.92;;
18568;SDS011;14780;48.316;-1.050;2023-08-08T14:42:18;9.90;;;4.68;;
18568;SDS011;14780;48.316;-1.050;2023-08-08T14:45:03;9.73;;;4.80;;
18568;SDS011;14780;48.316;-1.050;2023-08-08T14:47:49;10.65;;;6.22;;
18568;SDS011;14780;48.316;-1.050;2023-08-08T14:50:33;10.57;;;6.13;;
18568;SDS011;14780;48.316;-1.050;2023-08-08T14:53:18;9.70;;;5.28;;
18568;SDS011;14780;48.316;-1.050;2023-08-08T14:56:03;9.95;;;5.63;;
18568;SDS011;14780;48.316;-1.050;2023-08-08T14:58:48;10.52;;;5.88;;
18568;SDS011;14780;48.316;-1.050;2023-08-08T15:01:32;10.47;;;5.90;;
18568;SDS011;14780;48.316;-1.050;2023-08-08T15:04:17;10.57;;;6.18;;
18568;SDS011;14780;48.316;-1.050;2023-08-08T15:07:02;10.60;;;6.07;;
18568;SDS011;14780;48.316;-1.050;2023-08-08T15:09:46;12.65;;;6.35;;
18568;SDS011;14780;48.316;-1.050;2023-08-08T15:12:32;13.32;;;7.38;;
18568;SDS011;14780;48.316;-1.050;2023-08-08T15:15:17;9.68;;;6.55;;
18568;SDS011;14780;48.316;-1.050;2023-08-08T15:18:04;11.68;;;6.90;;
18568;SDS011;14780;48.316;-1.050;2023-08-08T15:20:48;12.38;;;6.78;;
18568;SDS011;14780;48.316;-1.050;2023-08-08T15:23:33;10.30;;;6.22;;
18568;SDS011;14780;48.316;-1.050;2023-08-08T15:26:18;10.68;;;6.53;;
18568;SDS011;14780;48.316;-1.050;2023-08-08T15:29:04;11.52;;;6.05;;
18568;SDS011;14780;48.316;-1.050;2023-08-08T15:31:49;9.82;;;5.90;;
18568;SDS011;14780;48.316;-1.050;2023-08-08T15:34:33;11.15;;;6.40;;
18568;SDS011;14780;48.316;-1.050;2023-08-08T15:37:18;10.80;;;5.30;;
18568;SDS011;14780;48.316;-1.050;2023-08-08T15:40:03;11.23;;;5.60;;
18568;SDS011;14780;48.316;-1.050;2023-08-08T15:42:49;9.27;;;5.40;;
18568;SDS011;14780;48.316;-1.050;2023-08-08T15:45:34;9.88;;;5.75;;
18568;SDS011;14780;48.316;-1.050;2023-08-08T15:48:18;9.63;;;5.50;;
18568;SDS011;14780;48.316;-1.050;2023-08-08T15:51:03;9.38;;;5.25;;
18568;SDS011;14780;48.316;-1.050;2023-08-08T15:53:48;9.40;;;5.45;;
18568;SDS011;14780;48.316;-1.050;2023-08-08T15:56:33;8.52;;;5.10;;
18568;SDS011;14780;48.316;-1.050;2023-08-08T15:59:19;9.48;;;5.00;;
18568;SDS011;14780;48.316;-1.050;2023-08-08T16:02:05;8.82;;;4.90;;
18568;SDS011;14780;48.316;-1.050;2023-08-08T16:04:49;8.67;;;5.20;;
18568;SDS011;14780;48.316;-1.050;2023-08-08T16:07:35;7.53;;;4.57;;
18568;SDS011;14780;48.316;-1.050;2023-08-08T16:10:20;10.75;;;4.68;;
18568;SDS011;14780;48.316;-1.050;2023-08-08T16:13:07;8.77;;;4.75;;
18568;SDS011;14780;48.316;-1.050;2023-08-08T16:15:52;7.63;;;4.45;;
18568;SDS011;14780;48.316;-1.050;2023-08-08T16:18:36;8.38;;;4.30;;
18568;SDS011;14780;48.316;-1.050;2023-08-08T16:21:21;6.93;;;4.38;;
18568;SDS011;14780;48.316;-1.050;2023-08-08T16:24:05;7.23;;;3.90;;